Time;durP1;ratioP1;P1;durP2;ratioP2;P2;SDS_P1;SDS_P2;PMS_P1;PMS_P2;Temp;Humidity;BMP_temperature;BMP_pressure;BME280_temperature;BME280_humidity;BME280_pressure;Samples;Min_cycle;Max_cycle;Signal;HPM_P1;HPM_P2
2022/12/18 00:00:57;;;;;;;10.38;3.78;;;;;;;;;;6218924;23;20427;-54
2022/12/18 00:03:24;;;;;;;13.68;4.32;;;;;;;;;;6206716;23;20020;-49
2022/12/18 00:05:53;;;;;;;12.63;4.00;;;;;;;;;;6211997;23;20016;-52
2022/12/18 00:08:20;;;;;;;12.60;3.90;;;;;;;;;;6213506;23;20020;-51
2022/12/18 00:10:47;;;;;;;12.32;3.42;;;;;;;;;;6208485;23;20280;-49
2022/12/18 00:13:13;;;;;;;12.30;4.07;;;;;;;;;;6212857;23;20394;-52
2022/12/18 00:15:40;;;;;;;13.88;3.85;;;;;;;;;;6209432;23;20016;-50
2022/12/18 00:18:07;;;;;;;12.03;4.03;;;;;;;;;;6216289;23;20463;-53
2022/12/18 00:20:36;;;;;;;12.02;3.90;;;;;;;;;;6204347;23;20051;-52
2022/12/18 00:23:04;;;;;;;11.57;3.88;;;;;;;;;;6212947;23;20012;-51
2022/12/18 00:25:31;;;;;;;12.68;4.35;;;;;;;;;;6201644;23;20030;-52
2022/12/18 00:27:57;;;;;;;14.07;4.45;;;;;;;;;;6187740;23;20320;-49
2022/12/18 00:30:23;;;;;;;16.30;4.00;;;;;;;;;;6187687;23;20031;-52
2022/12/18 00:32:50;;;;;;;15.32;4.95;;;;;;;;;;6215981;23;20054;-53
2022/12/18 00:35:17;;;;;;;15.57;4.50;;;;;;;;;;6197723;23;20027;-52
2022/12/18 00:37:43;;;;;;;13.10;4.30;;;;;;;;;;6190732;23;20024;-49
2022/12/18 00:40:12;;;;;;;13.40;4.38;;;;;;;;;;6185574;23;20426;-52
2022/12/18 00:42:55;;;;;;;12.20;4.03;;;;;;;;;;6205043;23;20301;-53
2022/12/18 00:45:25;;;;;;;13.15;4.05;;;;;;;;;;6212476;23;20517;-54
2022/12/18 00:47:51;;;;;;;17.38;5.03;;;;;;;;;;6210347;23;20017;-50
2022/12/18 00:50:18;;;;;;;13.18;4.63;;;;;;;;;;6210781;23;20873;-51
2022/12/18 00:52:45;;;;;;;14.07;4.57;;;;;;;;;;6219854;23;20091;-53
2022/12/18 00:55:16;;;;;;;15.90;5.07;;;;;;;;;;6209836;23;20361;-53
2022/12/18 00:57:43;;;;;;;19.10;5.55;;;;;;;;;;6216501;23;20016;-52
2022/12/18 01:00:11;;;;;;;16.63;4.72;;;;;;;;;;6168257;23;20390;-52
2022/12/18 01:02:37;;;;;;;15.30;5.53;;;;;;;;;;6211412;23;20023;-53
2022/12/18 01:05:04;;;;;;;15.40;4.93;;;;;;;;;;6199278;23;20578;-52
2022/12/18 01:07:30;;;;;;;20.57;5.67;;;;;;;;;;6218869;23;20020;-55
2022/12/18 01:09:57;;;;;;;16.83;5.93;;;;;;;;;;6205321;23;20016;-51
2022/12/18 01:12:25;;;;;;;17.20;5.53;;;;;;;;;;6216948;23;20503;-54
2022/12/18 01:14:51;;;;;;;18.23;6.15;;;;;;;;;;6207690;23;20016;-53
2022/12/18 01:17:17;;;;;;;16.25;5.55;;;;;;;;;;6217229;23;20475;-53
2022/12/18 01:19:44;;;;;;;16.03;5.47;;;;;;;;;;6211036;23;20016;-53
2022/12/18 01:22:11;;;;;;;15.52;5.35;;;;;;;;;;6208050;23;20078;-54
2022/12/18 01:24:37;;;;;;;17.90;5.53;;;;;;;;;;6180827;23;20343;-52
2022/12/18 01:27:05;;;;;;;18.63;6.03;;;;;;;;;;6222191;23;20062;-53
2022/12/18 01:29:33;;;;;;;17.13;5.10;;;;;;;;;;6212591;23;20095;-54
2022/12/18 01:32:00;;;;;;;17.03;6.13;;;;;;;;;;6216862;23;20016;-54
2022/12/18 01:34:26;;;;;;;17.88;5.90;;;;;;;;;;6214271;23;20031;-53
2022/12/18 01:36:53;;;;;;;26.52;6.82;;;;;;;;;;6215587;23;20016;-52
2022/12/18 01:39:19;;;;;;;19.58;7.32;;;;;;;;;;6212326;23;20036;-51
2022/12/18 01:42:05;;;;;;;20.42;6.45;;;;;;;;;;6213790;23;20028;-51
2022/12/18 01:45:01;;;;;;;21.27;6.57;;;;;;;;;;6207662;23;20453;-50
2022/12/18 01:47:32;;;;;;;23.85;6.70;;;;;;;;;;6088392;23;20686;-52
2022/12/18 01:50:01;;;;;;;20.88;6.93;;;;;;;;;;6189230;23;20016;-54
2022/12/18 01:52:29;;;;;;;20.70;6.07;;;;;;;;;;6217977;23;20070;-51
2022/12/18 01:54:56;;;;;;;20.42;7.38;;;;;;;;;;6210838;23;20016;-49
2022/12/18 01:57:23;;;;;;;22.13;7.67;;;;;;;;;;6216737;23;20020;-50
2022/12/18 01:59:52;;;;;;;19.10;6.80;;;;;;;;;;6178151;23;20020;-53
2022/12/18 02:02:19;;;;;;;25.52;6.88;;;;;;;;;;6213442;23;20346;-53
2022/12/18 02:04:47;;;;;;;20.02;6.78;;;;;;;;;;6211913;23;20012;-50
2022/12/18 02:07:17;;;;;;;21.27;6.90;;;;;;;;;;6220174;23;20016;-51
2022/12/18 02:09:49;;;;;;;23.77;8.10;;;;;;;;;;6203826;23;20112;-52
2022/12/18 02:12:18;;;;;;;22.63;7.05;;;;;;;;;;6196028;23;20402;-52
2022/12/18 02:14:46;;;;;;;25.38;7.38;;;;;;;;;;6221492;23;20027;-52
2022/12/18 02:17:16;;;;;;;19.08;6.47;;;;;;;;;;6211141;23;20016;-52
2022/12/18 02:19:49;;;;;;;22.65;6.82;;;;;;;;;;6211821;23;20062;-52
2022/12/18 02:22:21;;;;;;;21.97;7.30;;;;;;;;;;6216961;23;20078;-54
2022/12/18 02:24:55;;;;;;;23.30;7.82;;;;;;;;;;6220270;23;20090;-52
2022/12/18 02:27:23;;;;;;;24.92;7.93;;;;;;;;;;6205672;23;20085;-50
2022/12/18 02:29:51;;;;;;;25.90;7.57;;;;;;;;;;6205896;23;20008;-50
2022/12/18 02:32:20;;;;;;;23.65;7.90;;;;;;;;;;6213556;23;20585;-53
2022/12/18 02:34:47;;;;;;;23.10;6.80;;;;;;;;;;6216515;23;20062;-55
2022/12/18 02:37:15;;;;;;;18.60;6.60;;;;;;;;;;6200416;23;20020;-51
2022/12/18 02:39:44;;;;;;;20.45;6.55;;;;;;;;;;6196367;23;20078;-50
2022/12/18 02:42:11;;;;;;;22.98;7.82;;;;;;;;;;6211447;23;20505;-54
2022/12/18 02:44:44;;;;;;;20.05;6.40;;;;;;;;;;6215811;23;20024;-53
2022/12/18 02:47:11;;;;;;;25.10;7.40;;;;;;;;;;6215810;23;20016;-53
2022/12/18 02:49:42;;;;;;;19.40;7.28;;;;;;;;;;6215175;23;20015;-51
2022/12/18 02:52:11;;;;;;;18.73;6.30;;;;;;;;;;6205475;23;20040;-52
2022/12/18 02:54:45;;;;;;;18.52;6.38;;;;;;;;;;6214373;23;20122;-50
2022/12/18 02:57:15;;;;;;;22.45;7.35;;;;;;;;;;6203302;23;20074;-54
2022/12/18 02:59:46;;;;;;;21.10;7.07;;;;;;;;;;6217602;23;20475;-53
2022/12/18 03:02:19;;;;;;;18.63;6.22;;;;;;;;;;6174528;23;20398;-51
2022/12/18 03:04:49;;;;;;;20.23;7.28;;;;;;;;;;6216677;23;20020;-50
2022/12/18 03:07:17;;;;;;;21.10;7.88;;;;;;;;;;6209374;23;20020;-52
2022/12/18 03:09:45;;;;;;;20.55;6.95;;;;;;;;;;6215248;23;20011;-49
2022/12/18 03:12:24;;;;;;;20.60;6.67;;;;;;;;;;6201121;23;20704;-51
2022/12/18 03:14:53;;;;;;;26.15;7.72;;;;;;;;;;6212754;23;20012;-51
2022/12/18 03:17:26;;;;;;;19.45;7.40;;;;;;;;;;6177470;23;20390;-51
2022/12/18 03:19:56;;;;;;;20.02;7.28;;;;;;;;;;6202457;23;20701;-50
2022/12/18 03:22:24;;;;;;;25.27;8.48;;;;;;;;;;6211932;23;20024;-53
2022/12/18 03:24:54;;;;;;;19.20;6.97;;;;;;;;;;6221277;23;20060;-54
2022/12/18 03:27:21;;;;;;;23.42;7.35;;;;;;;;;;6218477;23;20685;-49
2022/12/18 03:29:49;;;;;;;17.65;7.40;;;;;;;;;;6208687;23;20569;-49
2022/12/18 03:32:18;;;;;;;20.83;7.25;;;;;;;;;;6219925;23;20521;-50
2022/12/18 03:34:47;;;;;;;23.77;7.85;;;;;;;;;;6209143;23;20280;-49
2022/12/18 03:37:14;;;;;;;21.03;6.83;;;;;;;;;;6187948;23;20020;-47
2022/12/18 03:39:40;;;;;;;19.48;7.38;;;;;;;;;;6206335;23;20008;-51
2022/12/18 03:42:09;;;;;;;20.30;7.78;;;;;;;;;;6215477;23;20051;-53
2022/12/18 03:44:39;;;;;;;18.90;7.03;;;;;;;;;;6212166;23;20435;-51
2022/12/18 03:47:08;;;;;;;18.20;6.97;;;;;;;;;;6217688;23;20023;-51
2022/12/18 03:49:36;;;;;;;19.63;7.43;;;;;;;;;;6216628;23;20008;-51
2022/12/18 03:52:05;;;;;;;19.60;6.22;;;;;;;;;;6202106;23;20450;-52
2022/12/18 03:54:32;;;;;;;22.63;7.63;;;;;;;;;;6222679;23;20153;-52
2022/12/18 03:57:00;;;;;;;18.65;7.07;;;;;;;;;;6192337;23;20023;-53
2022/12/18 03:59:28;;;;;;;25.35;7.85;;;;;;;;;;6220674;23;20020;-51
2022/12/18 04:01:58;;;;;;;27.03;8.00;;;;;;;;;;6179296;23;20040;-54
2022/12/18 04:04:25;;;;;;;27.98;9.27;;;;;;;;;;6219388;23;20020;-52
2022/12/18 04:06:51;;;;;;;26.30;7.97;;;;;;;;;;6188766;23;20012;-50
2022/12/18 04:09:20;;;;;;;23.08;7.93;;;;;;;;;;6187079;23;20016;-50
2022/12/18 04:11:47;;;;;;;20.77;7.82;;;;;;;;;;6208777;23;20012;-51
2022/12/18 04:14:13;;;;;;;19.73;6.47;;;;;;;;;;6210525;23;20013;-52
2022/12/18 04:16:40;;;;;;;21.50;7.68;;;;;;;;;;6208663;23;20023;-50
2022/12/18 04:19:06;;;;;;;21.23;6.05;;;;;;;;;;6219269;23;20066;-50
2022/12/18 04:21:36;;;;;;;20.02;6.85;;;;;;;;;;6210335;23;20075;-53
2022/12/18 04:24:03;;;;;;;23.15;6.63;;;;;;;;;;6219383;23;20023;-50
2022/12/18 04:26:31;;;;;;;21.07;6.90;;;;;;;;;;6207778;23;20070;-49
2022/12/18 04:28:57;;;;;;;22.25;7.18;;;;;;;;;;6219039;23;20435;-52
2022/12/18 04:31:23;;;;;;;20.88;6.85;;;;;;;;;;6213342;23;20036;-50
2022/12/18 04:33:50;;;;;;;21.20;7.43;;;;;;;;;;6215031;23;20012;-53
2022/12/18 04:36:16;;;;;;;22.17;6.38;;;;;;;;;;6208440;23;20372;-50
2022/12/18 04:38:43;;;;;;;23.23;7.20;;;;;;;;;;6213344;23;20016;-52
2022/12/18 04:41:09;;;;;;;17.10;6.38;;;;;;;;;;6189695;23;20105;-49
2022/12/18 04:43:38;;;;;;;19.67;6.63;;;;;;;;;;6207830;23;20020;-53
2022/12/18 04:46:08;;;;;;;19.65;7.25;;;;;;;;;;6214017;23;20012;-51
2022/12/18 04:48:35;;;;;;;19.30;6.22;;;;;;;;;;6214591;23;20043;-53
2022/12/18 04:51:01;;;;;;;21.13;6.90;;;;;;;;;;6208685;23;20012;-49
2022/12/18 04:53:27;;;;;;;20.38;7.13;;;;;;;;;;6205049;23;20913;-52
2022/12/18 04:56:03;;;;;;;22.35;7.07;;;;;;;;;;6192357;23;20050;-48
2022/12/18 04:58:33;;;;;;;21.30;7.10;;;;;;;;;;6224220;23;20024;-55
2022/12/18 05:01:01;;;;;;;28.10;7.95;;;;;;;;;;6183852;23;20414;-51
2022/12/18 05:03:28;;;;;;;20.97;7.63;;;;;;;;;;6212548;23;20023;-53
2022/12/18 05:05:57;;;;;;;22.98;8.05;;;;;;;;;;6218081;23;20066;-52
2022/12/18 05:08:23;;;;;;;24.15;7.72;;;;;;;;;;6219636;23;20016;-49
2022/12/18 05:10:51;;;;;;;28.30;8.85;;;;;;;;;;6205436;23;20024;-52
2022/12/18 05:13:18;;;;;;;21.42;7.90;;;;;;;;;;6224376;23;20020;-52
2022/12/18 05:15:51;;;;;;;23.20;7.03;;;;;;;;;;6212264;23;20043;-47
2022/12/18 05:18:20;;;;;;;21.88;7.20;;;;;;;;;;6210420;23;20498;-51
2022/12/18 05:20:47;;;;;;;24.08;7.93;;;;;;;;;;6217789;23;20450;-53
2022/12/18 05:23:13;;;;;;;21.77;6.93;;;;;;;;;;6183575;23;20923;-50
2022/12/18 05:25:40;;;;;;;22.38;8.13;;;;;;;;;;6217338;23;20020;-49
2022/12/18 05:28:06;;;;;;;25.93;8.63;;;;;;;;;;6215285;23;20047;-50
2022/12/18 05:30:36;;;;;;;22.83;7.78;;;;;;;;;;6214708;23;20446;-50
2022/12/18 05:33:02;;;;;;;24.42;8.05;;;;;;;;;;6221727;23;20085;-49
2022/12/18 05:35:30;;;;;;;25.38;7.15;;;;;;;;;;6206793;23;20062;-54
2022/12/18 05:37:56;;;;;;;26.85;7.57;;;;;;;;;;6217443;23;20016;-48
2022/12/18 05:40:23;;;;;;;20.60;6.57;;;;;;;;;;6185236;23;20044;-50
2022/12/18 05:42:49;;;;;;;23.73;7.90;;;;;;;;;;6218539;23;20016;-54
2022/12/18 05:45:16;;;;;;;20.00;6.53;;;;;;;;;;6186360;23;20012;-52
2022/12/18 05:47:43;;;;;;;22.65;7.10;;;;;;;;;;6190201;23;20065;-51
2022/12/18 05:50:09;;;;;;;17.05;6.70;;;;;;;;;;6216066;23;20174;-48
2022/12/18 05:52:37;;;;;;;21.30;7.17;;;;;;;;;;6203062;23;20020;-51
2022/12/18 05:55:04;;;;;;;23.98;7.93;;;;;;;;;;6212245;23;20525;-53
2022/12/18 05:57:32;;;;;;;20.27;8.02;;;;;;;;;;6210198;23;20071;-51
2022/12/18 05:59:59;;;;;;;23.52;6.32;;;;;;;;;;6219421;23;20027;-54
2022/12/18 06:02:25;;;;;;;22.42;7.65;;;;;;;;;;6203299;23;20447;-52
2022/12/18 06:04:52;;;;;;;20.47;7.07;;;;;;;;;;6217519;23;20466;-49
2022/12/18 06:07:18;;;;;;;20.23;7.03;;;;;;;;;;6219616;23;20012;-49
2022/12/18 06:09:46;;;;;;;19.73;8.02;;;;;;;;;;6210159;23;20440;-48
2022/12/18 06:12:16;;;;;;;23.67;8.10;;;;;;;;;;6218183;23;20012;-51
2022/12/18 06:14:43;;;;;;;23.33;6.35;;;;;;;;;;6209416;23;20023;-55
2022/12/18 06:17:10;;;;;;;19.93;7.03;;;;;;;;;;6218255;23;20733;-51
2022/12/18 06:19:37;;;;;;;19.65;7.07;;;;;;;;;;6215645;23;20023;-54
2022/12/18 06:22:03;;;;;;;20.17;7.05;;;;;;;;;;6216613;23;20051;-50
2022/12/18 06:24:30;;;;;;;23.20;6.95;;;;;;;;;;6213540;23;20437;-51
2022/12/18 06:26:58;;;;;;;20.63;6.70;;;;;;;;;;6214051;23;20015;-54
2022/12/18 06:29:25;;;;;;;24.13;7.23;;;;;;;;;;6214732;23;20008;-52
2022/12/18 06:31:51;;;;;;;23.15;7.15;;;;;;;;;;6212608;23;20066;-50
2022/12/18 06:34:18;;;;;;;23.20;6.90;;;;;;;;;;6219293;23;20370;-50
2022/12/18 06:36:45;;;;;;;21.02;6.93;;;;;;;;;;6210906;23;20284;-50
2022/12/18 06:39:11;;;;;;;24.33;7.80;;;;;;;;;;6191220;23;20382;-52
2022/12/18 06:41:38;;;;;;;23.70;8.20;;;;;;;;;;6213271;23;20069;-54
2022/12/18 06:44:06;;;;;;;25.55;8.20;;;;;;;;;;6215444;23;20498;-51
2022/12/18 06:46:33;;;;;;;23.75;8.35;;;;;;;;;;6213754;23;20837;-53
2022/12/18 06:48:59;;;;;;;21.05;7.53;;;;;;;;;;6216118;23;20177;-53
2022/12/18 06:51:26;;;;;;;26.92;8.48;;;;;;;;;;6205620;23;20034;-53
2022/12/18 06:53:52;;;;;;;24.07;7.47;;;;;;;;;;6216549;23;20351;-52
2022/12/18 06:56:19;;;;;;;23.25;7.15;;;;;;;;;;6206916;23;20012;-52
2022/12/18 06:58:45;;;;;;;23.25;7.72;;;;;;;;;;6217830;23;20039;-51
2022/12/18 07:01:13;;;;;;;23.73;7.35;;;;;;;;;;6206171;23;20012;-55
2022/12/18 07:03:41;;;;;;;23.98;8.15;;;;;;;;;;6209594;23;20020;-49
2022/12/18 07:06:13;;;;;;;18.23;6.77;;;;;;;;;;6216313;23;20070;-53
2022/12/18 07:08:39;;;;;;;26.77;7.25;;;;;;;;;;6210438;23;20586;-49
2022/12/18 07:11:06;;;;;;;24.98;7.90;;;;;;;;;;6211525;23;20012;-54
2022/12/18 07:13:33;;;;;;;19.90;6.75;;;;;;;;;;6217924;23;20035;-53
2022/12/18 07:16:04;;;;;;;20.08;6.13;;;;;;;;;;6211419;23;20114;-52
2022/12/18 07:18:32;;;;;;;24.50;7.20;;;;;;;;;;6218338;23;20027;-49
2022/12/18 07:20:58;;;;;;;20.08;6.50;;;;;;;;;;6184297;23;20012;-50
2022/12/18 07:23:24;;;;;;;19.20;6.43;;;;;;;;;;6210054;23;20070;-51
2022/12/18 07:25:51;;;;;;;22.65;6.45;;;;;;;;;;6211228;23;20469;-53
2022/12/18 07:28:17;;;;;;;23.35;6.40;;;;;;;;;;6214661;23;20012;-53
2022/12/18 07:30:44;;;;;;;20.97;6.07;;;;;;;;;;6216526;23;20016;-53
2022/12/18 07:33:11;;;;;;;19.73;6.15;;;;;;;;;;6206849;23;20382;-53
2022/12/18 07:35:39;;;;;;;23.83;6.88;;;;;;;;;;6210872;23;20039;-53
2022/12/18 07:38:06;;;;;;;16.75;6.10;;;;;;;;;;6180316;23;20519;-53
2022/12/18 07:40:32;;;;;;;18.10;5.90;;;;;;;;;;6217247;23;20027;-51
2022/12/18 07:42:59;;;;;;;20.87;6.07;;;;;;;;;;6209993;23;20070;-52
2022/12/18 07:45:25;;;;;;;21.70;6.25;;;;;;;;;;6218114;23;20020;-54
2022/12/18 07:47:51;;;;;;;19.58;6.88;;;;;;;;;;6198418;23;20069;-51
2022/12/18 07:50:18;;;;;;;19.77;6.13;;;;;;;;;;6220455;23;20431;-49
2022/12/18 07:52:47;;;;;;;18.55;6.25;;;;;;;;;;6209753;23;20016;-49
2022/12/18 07:55:14;;;;;;;18.20;5.83;;;;;;;;;;6221526;23;20466;-55
2022/12/18 07:57:40;;;;;;;22.70;6.15;;;;;;;;;;6206843;23;20019;-50
2022/12/18 08:00:07;;;;;;;23.20;6.07;;;;;;;;;;6218614;23;20591;-49
2022/12/18 08:02:34;;;;;;;16.27;5.68;;;;;;;;;;6214975;23;20568;-49
2022/12/18 08:05:00;;;;;;;23.20;6.10;;;;;;;;;;6193719;23;20502;-50
2022/12/18 08:07:27;;;;;;;18.60;6.50;;;;;;;;;;6218383;23;20020;-52
2022/12/18 08:09:55;;;;;;;18.55;5.53;;;;;;;;;;6209396;23;20027;-50
2022/12/18 08:12:23;;;;;;;19.08;6.80;;;;;;;;;;6219081;23;20202;-54
2022/12/18 08:14:49;;;;;;;20.00;5.63;;;;;;;;;;6220502;23;20012;-51
2022/12/18 08:17:16;;;;;;;18.60;5.82;;;;;;;;;;6202336;23;20019;-54
2022/12/18 08:19:42;;;;;;;18.80;5.83;;;;;;;;;;6220206;23;20023;-49
2022/12/18 08:22:09;;;;;;;21.25;6.28;;;;;;;;;;6212049;23;20474;-50
2022/12/18 08:24:35;;;;;;;19.45;6.35;;;;;;;;;;6220312;23;20147;-49
2022/12/18 08:27:03;;;;;;;18.83;6.30;;;;;;;;;;6211032;23;20378;-54
2022/12/18 08:29:31;;;;;;;20.95;7.05;;;;;;;;;;6213616;23;20494;-53
2022/12/18 08:31:58;;;;;;;18.53;5.47;;;;;;;;;;6215870;23;20062;-52
2022/12/18 08:34:24;;;;;;;17.85;6.20;;;;;;;;;;6214854;23;20016;-51
2022/12/18 08:36:51;;;;;;;22.73;6.15;;;;;;;;;;6208614;23;20012;-52
2022/12/18 08:39:17;;;;;;;20.70;6.60;;;;;;;;;;6223182;23;20082;-51
2022/12/18 08:44:36;;;;;;;19.25;6.45;;;;;;;;;;6201928;23;20022;-51
2022/12/18 08:44:38;;;;;;;22.20;6.00;;;;;;;;;;6215984;23;20024;-53
2022/12/18 08:47:04;;;;;;;21.25;6.30;;;;;;;;;;6217908;23;20017;-53
2022/12/18 08:49:31;;;;;;;17.88;6.07;;;;;;;;;;6210996;23;20044;-52
2022/12/18 08:51:58;;;;;;;17.65;6.28;;;;;;;;;;6221852;23;20074;-49
2022/12/18 08:54:24;;;;;;;19.77;6.00;;;;;;;;;;6210412;23;20074;-50
2022/12/18 08:56:51;;;;;;;16.00;5.47;;;;;;;;;;6216068;23;20016;-54
2022/12/18 08:59:18;;;;;;;23.63;6.78;;;;;;;;;;6207862;23;20399;-51
2022/12/18 09:01:46;;;;;;;20.60;6.55;;;;;;;;;;6221839;23;20442;-52
2022/12/18 09:04:13;;;;;;;22.15;6.85;;;;;;;;;;6215019;23;20027;-51
2022/12/18 09:06:40;;;;;;;21.25;7.30;;;;;;;;;;6218929;23;20016;-54
2022/12/18 09:09:08;;;;;;;24.17;6.63;;;;;;;;;;6213259;23;20016;-54
2022/12/18 09:11:34;;;;;;;18.23;6.60;;;;;;;;;;6220780;23;20016;-49
2022/12/18 09:14:02;;;;;;;22.02;6.55;;;;;;;;;;6204563;23;20023;-50
2022/12/18 09:16:29;;;;;;;18.08;7.00;;;;;;;;;;6221660;23;20047;-51
2022/12/18 09:18:59;;;;;;;20.77;7.63;;;;;;;;;;6207913;23;20078;-49
2022/12/18 09:21:26;;;;;;;25.27;8.43;;;;;;;;;;6223421;23;20016;-52
2022/12/18 09:23:53;;;;;;;23.05;8.05;;;;;;;;;;6206963;23;20024;-53
2022/12/18 09:26:20;;;;;;;23.05;8.50;;;;;;;;;;6216304;23;20078;-52
2022/12/18 09:28:46;;;;;;;22.33;7.78;;;;;;;;;;6219413;23;20016;-55
2022/12/18 09:31:17;;;;;;;22.00;8.05;;;;;;;;;;6211677;23;20016;-50
2022/12/18 09:33:44;;;;;;;26.37;9.23;;;;;;;;;;6215603;23;20024;-51
2022/12/18 09:36:15;;;;;;;22.38;8.30;;;;;;;;;;6217532;23;20012;-52
2022/12/18 09:38:41;;;;;;;21.10;7.95;;;;;;;;;;6217088;23;20020;-50
2022/12/18 09:41:15;;;;;;;21.70;8.65;;;;;;;;;;6210941;23;20044;-50
2022/12/18 09:43:44;;;;;;;25.27;8.68;;;;;;;;;;6219107;23;20020;-48
2022/12/18 09:46:12;;;;;;;26.60;8.47;;;;;;;;;;6216443;23;20457;-52
2022/12/18 09:48:41;;;;;;;25.17;9.50;;;;;;;;;;6212104;23;20347;-48
2022/12/18 09:51:13;;;;;;;27.88;8.70;;;;;;;;;;6221365;23;20090;-50
2022/12/18 09:53:42;;;;;;;30.00;9.25;;;;;;;;;;6214431;23;20012;-54
2022/12/18 09:56:12;;;;;;;27.00;9.52;;;;;;;;;;6206900;23;20040;-52
2022/12/18 09:58:44;;;;;;;27.03;9.77;;;;;;;;;;6208217;23;20532;-52
2022/12/18 10:01:10;;;;;;;27.13;9.35;;;;;;;;;;6208966;23;20023;-51
2022/12/18 10:03:37;;;;;;;29.30;10.10;;;;;;;;;;6210712;23;20024;-52
2022/12/18 10:06:07;;;;;;;31.13;9.50;;;;;;;;;;6212055;23;20020;-54
2022/12/18 10:08:36;;;;;;;30.48;9.90;;;;;;;;;;6223687;23;20062;-48
2022/12/18 10:11:09;;;;;;;28.37;9.17;;;;;;;;;;6179368;23;20376;-51
2022/12/18 10:13:42;;;;;;;28.83;9.35;;;;;;;;;;6214729;23;20012;-52
2022/12/18 10:16:14;;;;;;;28.15;9.75;;;;;;;;;;6206612;23;20016;-53
2022/12/18 10:18:57;;;;;;;26.25;9.63;;;;;;;;;;6213700;23;20324;-49
2022/12/18 10:21:27;;;;;;;25.75;9.38;;;;;;;;;;6215424;23;20016;-49
2022/12/18 10:23:58;;;;;;;27.77;10.13;;;;;;;;;;6213447;23;20024;-50
2022/12/18 10:26:26;;;;;;;30.55;10.93;;;;;;;;;;6220163;23;20638;-50
2022/12/18 10:28:54;;;;;;;36.45;11.02;;;;;;;;;;6212764;23;20024;-54
2022/12/18 10:31:23;;;;;;;28.52;10.45;;;;;;;;;;6217079;23;20390;-48
2022/12/18 10:33:50;;;;;;;32.70;10.18;;;;;;;;;;6215008;23;20052;-52
2022/12/18 10:36:16;;;;;;;30.60;10.63;;;;;;;;;;6216669;23;20077;-55
2022/12/18 10:38:43;;;;;;;32.20;10.40;;;;;;;;;;6209326;23;20348;-51
2022/12/18 10:41:26;;;;;;;33.00;11.18;;;;;;;;;;6218067;23;20023;-51
2022/12/18 10:44:11;;;;;;;36.00;10.30;;;;;;;;;;6219998;23;20090;-52
2022/12/18 10:46:38;;;;;;;32.60;10.43;;;;;;;;;;6196425;23;20041;-51
2022/12/18 10:49:04;;;;;;;30.33;10.47;;;;;;;;;;6215952;23;20016;-51
2022/12/18 10:51:33;;;;;;;40.00;12.00;;;;;;;;;;6202620;23;20394;-50
2022/12/18 10:54:01;;;;;;;32.63;10.98;;;;;;;;;;6204203;23;20020;-52
2022/12/18 10:56:28;;;;;;;43.05;12.43;;;;;;;;;;6205515;23;20016;-53
2022/12/18 10:59:03;;;;;;;31.00;11.45;;;;;;;;;;6206031;23;20020;-52
2022/12/18 11:01:36;;;;;;;31.47;11.37;;;;;;;;;;6214533;23;20024;-51
2022/12/18 11:04:08;;;;;;;35.97;11.60;;;;;;;;;;6211110;23;20024;-53
2022/12/18 11:06:51;;;;;;;34.40;11.00;;;;;;;;;;6201808;23;20273;-53
2022/12/18 11:09:20;;;;;;;34.45;12.32;;;;;;;;;;6177607;23;20009;-52
2022/12/18 11:11:49;;;;;;;29.55;10.43;;;;;;;;;;6203458;23;20469;-52
2022/12/18 11:14:19;;;;;;;38.13;11.93;;;;;;;;;;6208767;23;20346;-53
2022/12/18 11:16:47;;;;;;;35.33;11.50;;;;;;;;;;6200095;23;20066;-52
2022/12/18 11:19:20;;;;;;;34.80;12.52;;;;;;;;;;6207007;23;20397;-53
2022/12/18 11:21:47;;;;;;;38.30;11.68;;;;;;;;;;6182435;23;20016;-51
2022/12/18 11:24:20;;;;;;;36.53;12.20;;;;;;;;;;6182366;23;20023;-51
2022/12/18 11:26:47;;;;;;;29.60;10.67;;;;;;;;;;6198707;23;20438;-50
2022/12/18 11:29:18;;;;;;;33.10;11.75;;;;;;;;;;6196255;23;20364;-54
2022/12/18 11:47:10;;;;;;;26.95;9.43;;;;;;;;;;6250079;22;20073;-52
2022/12/18 11:49:41;;;;;;;28.63;10.45;;;;;;;;;;6243219;22;20584;-49
2022/12/18 11:52:12;;;;;;;29.43;9.77;;;;;;;;;;6247056;22;20102;-53
2022/12/18 11:54:41;;;;;;;28.02;9.82;;;;;;;;;;6229907;22;20420;-51
2022/12/18 11:57:14;;;;;;;27.30;10.50;;;;;;;;;;6227124;22;28748;-52
2022/12/18 11:59:49;;;;;;;29.63;10.20;;;;;;;;;;6086336;22;112998;-51
2022/12/18 12:02:31;;;;;;;35.90;10.43;;;;;;;;;;6195368;23;20139;-52
2022/12/18 12:05:13;;;;;;;26.90;9.93;;;;;;;;;;6186892;23;20051;-52
2022/12/18 12:07:46;;;;;;;32.05;9.85;;;;;;;;;;6180140;23;20488;-52
2022/12/18 12:10:20;;;;;;;27.25;9.05;;;;;;;;;;6176255;23;20052;-50
2022/12/18 12:12:54;;;;;;;30.33;9.65;;;;;;;;;;6188897;23;20024;-52
2022/12/18 12:15:27;;;;;;;24.85;9.13;;;;;;;;;;6179228;23;20635;-50
2022/12/18 12:18:00;;;;;;;28.13;8.80;;;;;;;;;;6178411;23;20619;-52
2022/12/18 12:20:40;;;;;;;27.08;8.23;;;;;;;;;;6186743;23;20410;-52
2022/12/18 12:23:16;;;;;;;24.80;7.72;;;;;;;;;;6179842;23;20119;-51
2022/12/18 12:25:47;;;;;;;29.75;8.43;;;;;;;;;;6181289;23;20088;-57
2022/12/18 12:28:20;;;;;;;29.65;8.55;;;;;;;;;;6186453;23;20095;-50
2022/12/18 12:30:53;;;;;;;26.37;8.87;;;;;;;;;;6175970;23;20334;-51
2022/12/18 12:33:29;;;;;;;28.77;8.82;;;;;;;;;;6179925;23;20502;-52
2022/12/18 12:36:02;;;;;;;28.20;10.02;;;;;;;;;;6180440;23;20089;-50
2022/12/18 12:38:32;;;;;;;30.85;9.60;;;;;;;;;;6172168;23;20044;-54
2022/12/18 12:41:01;;;;;;;21.65;6.65;;;;;;;;;;6187680;23;20140;-52
2022/12/18 12:43:33;;;;;;;26.27;8.13;;;;;;;;;;6172917;23;20443;-48
2022/12/18 12:46:05;;;;;;;22.50;7.80;;;;;;;;;;6181176;23;20486;-54
2022/12/18 12:48:42;;;;;;;24.25;7.72;;;;;;;;;;6210030;23;20031;-54
2022/12/18 12:51:17;;;;;;;23.60;7.03;;;;;;;;;;6177164;23;20016;-54
2022/12/18 12:53:45;;;;;;;20.67;6.85;;;;;;;;;;6190463;23;20026;-50
2022/12/18 12:56:14;;;;;;;22.37;6.83;;;;;;;;;;6176508;23;20013;-53
2022/12/18 12:58:46;;;;;;;22.25;6.53;;;;;;;;;;6194352;23;20013;-54
2022/12/18 13:01:18;;;;;;;19.85;6.00;;;;;;;;;;6182657;23;20016;-53
2022/12/18 13:03:55;;;;;;;22.27;6.97;;;;;;;;;;6190073;23;20497;-50
2022/12/18 13:06:30;;;;;;;16.88;5.85;;;;;;;;;;6178324;23;20546;-51
2022/12/18 13:08:59;;;;;;;16.47;5.13;;;;;;;;;;6177723;23;20021;-51
2022/12/18 13:14:25;;;;;;;16.25;5.38;;;;;;;;;;6181955;23;20023;-50
2022/12/18 13:17:15;;;;;;;15.65;4.60;;;;;;;;;;6190154;23;20017;-49
2022/12/18 13:19:43;;;;;;;16.08;5.05;;;;;;;;;;6184480;23;20021;-50
2022/12/18 13:22:23;;;;;;;14.60;4.97;;;;;;;;;;6179239;23;20021;-49
2022/12/18 13:24:51;;;;;;;13.30;5.22;;;;;;;;;;6175011;23;20123;-49
2022/12/18 13:27:41;;;;;;;14.60;5.07;;;;;;;;;;6183641;23;20526;-51
2022/12/18 13:30:23;;;;;;;14.80;4.65;;;;;;;;;;6172102;23;20498;-48
2022/12/18 13:33:17;;;;;;;13.90;4.50;;;;;;;;;;6175501;23;20024;-51
2022/12/18 13:35:52;;;;;;;12.80;4.27;;;;;;;;;;6207581;23;20494;-49
2022/12/18 13:38:23;;;;;;;13.63;4.40;;;;;;;;;;6180107;23;20032;-52
2022/12/18 13:40:57;;;;;;;15.30;4.60;;;;;;;;;;6183132;23;20016;-50
2022/12/18 13:43:28;;;;;;;17.65;4.35;;;;;;;;;;6179377;23;20044;-52
2022/12/18 13:46:03;;;;;;;12.48;4.53;;;;;;;;;;6176344;23;20470;-49
2022/12/18 13:48:33;;;;;;;11.67;3.63;;;;;;;;;;6189652;23;20115;-51
2022/12/18 13:51:03;;;;;;;10.70;3.63;;;;;;;;;;6178824;23;20020;-51
2022/12/18 13:53:34;;;;;;;9.80;3.72;;;;;;;;;;6191567;23;20268;-48
2022/12/18 13:56:02;;;;;;;11.77;3.72;;;;;;;;;;6179490;23;20020;-48
2022/12/18 13:58:32;;;;;;;14.13;4.05;;;;;;;;;;6187681;23;20031;-48
2022/12/18 14:01:01;;;;;;;12.00;3.53;;;;;;;;;;6181462;23;20485;-50
2022/12/18 14:03:30;;;;;;;9.82;3.65;;;;;;;;;;6186839;23;20020;-49
2022/12/18 14:06:03;;;;;;;10.27;3.42;;;;;;;;;;6190125;23;20020;-53
2022/12/18 14:08:37;;;;;;;8.90;3.55;;;;;;;;;;6183583;23;20290;-51
2022/12/18 14:11:18;;;;;;;11.98;3.22;;;;;;;;;;6180946;23;20020;-53
2022/12/18 14:13:48;;;;;;;10.70;3.00;;;;;;;;;;6210491;23;20020;-53
2022/12/18 14:16:17;;;;;;;9.50;3.10;;;;;;;;;;6180815;23;20016;-52
2022/12/18 14:18:48;;;;;;;9.30;3.40;;;;;;;;;;6181905;23;20402;-51
2022/12/18 14:21:18;;;;;;;11.38;3.60;;;;;;;;;;6187445;23;20521;-50
2022/12/18 14:23:47;;;;;;;9.73;3.30;;;;;;;;;;6174726;23;20040;-50
2022/12/18 14:26:23;;;;;;;7.33;2.57;;;;;;;;;;6205900;23;20012;-50
2022/12/18 14:28:51;;;;;;;7.88;2.60;;;;;;;;;;6178476;23;20051;-56
2022/12/18 14:31:19;;;;;;;9.18;3.20;;;;;;;;;;6181877;23;20048;-48
2022/12/18 14:33:47;;;;;;;7.68;2.60;;;;;;;;;;6178046;23;20029;-52
2022/12/18 14:36:16;;;;;;;7.05;2.72;;;;;;;;;;6185889;23;20245;-48
2022/12/18 14:38:48;;;;;;;12.00;2.87;;;;;;;;;;6180832;23;20044;-49
2022/12/18 14:41:18;;;;;;;9.07;2.42;;;;;;;;;;6184470;23;20044;-51
2022/12/18 14:43:46;;;;;;;7.80;2.97;;;;;;;;;;6185241;23;20091;-50
2022/12/18 14:46:28;;;;;;;8.63;3.60;;;;;;;;;;6180949;23;20407;-49
2022/12/18 14:48:57;;;;;;;7.80;3.03;;;;;;;;;;6184776;23;20031;-50
2022/12/18 14:51:29;;;;;;;6.80;3.00;;;;;;;;;;6174670;23;20023;-51
2022/12/18 14:53:58;;;;;;;9.27;2.80;;;;;;;;;;6183495;23;20021;-49
2022/12/18 14:56:28;;;;;;;8.85;3.22;;;;;;;;;;6179768;23;20019;-55
2022/12/18 14:58:56;;;;;;;7.47;2.60;;;;;;;;;;6189112;23;20337;-53